Time;durP1;ratioP1;P1;durP2;ratioP2;P2;SDS_P1;SDS_P2;PMS_P1;PMS_P2;Temp;Humidity;BMP_temperature;BMP_pressure;BME280_temperature;BME280_humidity;BME280_pressure;Samples;Min_cycle;Max_cycle;Signal;HPM_P1;HPM_P2
2021/09/17 00:00:13;;;;;;;9.28;6.37;;;;;;;16.85;82.87;100742.36;1717297;83;21775;-84
2021/09/17 00:02:41;;;;;;;11.35;6.42;;;;;;;16.88;82.88;100739.71;1716675;83;21075;-84
2021/09/17 00:05:09;;;;;;;13.80;6.65;;;;;;;16.90;82.81;100742.80;1719647;81;21031;-84
2021/09/17 00:07:35;;;;;;;10.25;6.53;;;;;;;16.90;82.82;100746.78;1730111;82;21063;-83
2021/09/17 00:10:03;;;;;;;12.33;6.35;;;;;;;16.90;82.75;100743.25;1730090;82;21122;-83
2021/09/17 00:12:29;;;;;;;8.78;6.90;;;;;;;16.87;82.64;100734.84;1730328;82;21794;-88
2021/09/17 00:14:56;;;;;;;11.63;6.25;;;;;;;16.87;82.66;100741.49;1730484;81;21079;-86
2021/09/17 00:17:23;;;;;;;8.80;5.72;;;;;;;16.88;82.77;100739.25;1730567;82;21043;-88
2021/09/17 00:19:49;;;;;;;8.55;6.35;;;;;;;16.87;82.56;100736.59;1730287;82;21027;-87
2021/09/17 00:22:16;;;;;;;9.05;6.60;;;;;;;16.86;82.63;100736.17;1729914;81;21035;-88
2021/09/17 00:24:42;;;;;;;10.88;6.50;;;;;;;16.85;82.64;100733.05;1729821;81;22690;-88
2021/09/17 00:27:09;;;;;;;10.08;6.40;;;;;;;16.89;82.81;100731.73;1730148;82;21031;-83
2021/09/17 00:29:36;;;;;;;10.05;6.60;;;;;;;16.90;82.77;100731.28;1729687;81;21078;-84
2021/09/17 00:32:03;;;;;;;13.50;6.25;;;;;;;16.91;82.66;100731.70;1729824;82;21102;-84
2021/09/17 00:34:30;;;;;;;13.80;6.80;;;;;;;16.90;82.66;100727.30;1729836;82;21605;-84
2021/09/17 00:36:56;;;;;;;11.88;6.40;;;;;;;16.88;82.61;100732.61;1729739;82;22447;-84
2021/09/17 00:39:23;;;;;;;9.18;6.30;;;;;;;16.86;82.60;100726.41;1729786;82;21118;-84
2021/09/17 00:41:50;;;;;;;11.73;6.80;;;;;;;16.85;82.70;100727.73;1730158;82;21066;-84
2021/09/17 00:44:26;;;;;;;11.18;6.97;;;;;;;16.84;82.67;100722.88;1729851;81;21080;-84
2021/09/17 00:46:53;;;;;;;8.65;6.65;;;;;;;16.82;82.58;100720.66;1729727;81;21385;-84
2021/09/17 00:49:20;;;;;;;13.08;7.50;;;;;;;16.82;82.71;100719.34;1729600;82;21813;-83
2021/09/17 00:51:47;;;;;;;12.85;6.70;;;;;;;16.80;82.65;100717.51;1729528;82;21444;-83
2021/09/17 00:54:14;;;;;;;11.88;6.58;;;;;;;16.78;82.72;100720.20;1729768;81;21107;-83
2021/09/17 00:56:42;;;;;;;9.13;7.17;;;;;;;16.77;82.76;100721.52;1730060;82;21211;-88
2021/09/17 00:59:09;;;;;;;13.15;8.13;;;;;;;16.75;82.73;100715.33;1703221;82;21106;-83
2021/09/17 01:01:39;;;;;;;9.38;6.45;;;;;;;16.73;82.73;100713.98;1729728;82;22631;-83
2021/09/17 01:04:09;;;;;;;13.30;6.67;;;;;;;16.70;82.69;100713.56;1729655;82;21051;-83
2021/09/17 01:06:36;;;;;;;9.13;6.78;;;;;;;16.69;82.75;100719.75;1729307;81;21083;-83
2021/09/17 01:09:04;;;;;;;13.05;7.28;;;;;;;16.66;82.72;100715.75;1729361;81;21130;-83
2021/09/17 01:11:31;;;;;;;9.63;6.33;;;;;;;16.65;82.78;100712.67;1729960;81;21039;-84
2021/09/17 01:13:58;;;;;;;10.63;6.55;;;;;;;16.63;82.81;100709.13;1730145;82;21759;-84
2021/09/17 01:16:25;;;;;;;8.78;6.10;;;;;;;16.60;82.82;100706.46;1730070;82;21134;-84
2021/09/17 01:18:52;;;;;;;8.50;6.40;;;;;;;16.60;82.92;100710.45;1730207;82;21046;-84
2021/09/17 01:21:20;;;;;;;12.03;6.97;;;;;;;16.60;82.94;100713.11;1730482;82;21156;-88
2021/09/17 01:23:47;;;;;;;10.28;6.10;;;;;;;16.59;82.98;100706.04;1730095;82;21536;-88
2021/09/17 01:26:14;;;;;;;11.55;6.22;;;;;;;16.59;82.95;100702.47;1729624;82;21784;-88
2021/09/17 01:28:40;;;;;;;9.70;6.37;;;;;;;16.58;82.96;100702.92;1729925;81;21583;-88
2021/09/17 01:31:07;;;;;;;14.33;6.22;;;;;;;16.56;82.96;100696.73;1730368;82;21564;-89
2021/09/17 01:33:34;;;;;;;14.38;6.37;;;;;;;16.56;82.95;100704.70;1730565;82;21596;-88
2021/09/17 01:36:05;;;;;;;8.88;6.30;;;;;;;16.55;82.98;100702.91;1730377;82;22395;-85
2021/09/17 01:38:33;;;;;;;12.95;6.15;;;;;;;16.51;82.93;100702.48;1728771;82;21832;-84
2021/09/17 01:40:59;;;;;;;10.00;6.17;;;;;;;16.49;82.95;100695.83;1729867;82;21061;-84
2021/09/17 01:43:26;;;;;;;8.58;6.00;;;;;;;16.49;83.07;100694.50;1730358;82;21054;-84
2021/09/17 01:45:53;;;;;;;6.72;6.03;;;;;;;16.49;83.11;100689.19;1730625;82;21028;-84
2021/09/17 01:48:20;;;;;;;10.38;5.90;;;;;;;16.48;83.03;100687.44;1730498;81;21028;-85
2021/09/17 01:50:46;;;;;;;14.90;5.80;;;;;;;16.48;83.16;100692.75;1730131;82;21927;-85
2021/09/17 01:53:13;;;;;;;11.97;6.22;;;;;;;16.49;83.18;100690.97;1729810;81;21082;-84
2021/09/17 01:55:39;;;;;;;7.17;6.22;;;;;;;16.47;83.14;100681.66;1729760;82;21109;-84
2021/09/17 01:58:07;;;;;;;9.25;6.42;;;;;;;16.47;83.03;100693.62;1730223;82;21055;-84
2021/09/17 02:00:33;;;;;;;10.25;6.72;;;;;;;16.44;83.04;100688.33;1730150;82;21097;-83
2021/09/17 02:03:01;;;;;;;13.40;6.28;;;;;;;16.41;83.01;100680.80;1730215;82;21186;-83
2021/09/17 02:05:28;;;;;;;12.50;6.62;;;;;;;16.38;82.98;100679.45;1729071;81;21103;-84
2021/09/17 02:07:57;;;;;;;9.50;5.87;;;;;;;16.35;82.94;100674.13;1716695;83;21047;-84
2021/09/17 02:10:24;;;;;;;11.15;5.83;;;;;;;16.29;82.90;100676.34;1716742;83;21676;-88
2021/09/17 02:12:51;;;;;;;10.58;6.05;;;;;;;16.21;82.80;100671.48;1717342;83;21004;-89
2021/09/17 02:15:17;;;;;;;8.90;6.22;;;;;;;16.12;82.80;100672.35;1717278;83;21770;-89
2021/09/17 02:17:44;;;;;;;7.28;5.60;;;;;;;16.03;82.83;100678.55;1717141;82;21051;-89
2021/09/17 02:20:12;;;;;;;7.67;5.75;;;;;;;15.95;82.94;100668.34;1717472;83;21506;-89
2021/09/17 02:22:38;;;;;;;10.93;6.53;;;;;;;15.88;82.98;100666.14;1717348;83;21313;-89
2021/09/17 02:25:07;;;;;;;9.53;5.80;;;;;;;15.81;83.07;100664.35;1717353;83;21087;-89
2021/09/17 02:27:33;;;;;;;9.25;6.33;;;;;;;15.73;83.08;100663.42;1717489;83;22463;-89
2021/09/17 02:30:00;;;;;;;8.45;6.53;;;;;;;15.66;83.15;100665.61;1717203;83;21087;-88
2021/09/17 02:32:27;;;;;;;9.10;6.45;;;;;;;15.59;83.22;100670.45;1717182;83;21075;-89
2021/09/17 02:34:53;;;;;;;8.33;5.92;;;;;;;15.52;83.29;100662.90;1717339;82;21556;-87
2021/09/17 02:37:20;;;;;;;10.00;5.47;;;;;;;15.46;83.41;100657.58;1717298;82;21525;-88
2021/09/17 02:39:46;;;;;;;14.33;6.67;;;;;;;15.42;83.50;100654.03;1716909;83;21193;-83
2021/09/17 02:42:13;;;;;;;10.28;6.75;;;;;;;15.40;83.66;100650.94;1716849;83;21119;-83
2021/09/17 02:44:40;;;;;;;7.42;5.55;;;;;;;15.38;83.80;100650.05;1717108;82;21057;-83
2021/09/17 02:47:07;;;;;;;11.63;6.35;;;;;;;15.33;83.72;100650.92;1716845;83;21059;-83
2021/09/17 02:49:33;;;;;;;6.72;6.03;;;;;;;15.28;83.70;100653.98;1716940;83;21569;-84
2021/09/17 02:52:01;;;;;;;13.55;9.30;;;;;;;15.23;83.74;100649.09;1716881;83;21683;-84
2021/09/17 02:54:27;;;;;;;11.08;7.80;;;;;;;15.16;83.79;100648.20;1716565;83;21063;-84
2021/09/17 02:56:54;;;;;;;11.57;7.42;;;;;;;15.11;83.97;100639.33;1716616;83;21031;-83
2021/09/17 02:59:21;;;;;;;11.78;6.87;;;;;;;15.07;83.89;100645.50;1716647;83;21178;-87
2021/09/17 03:01:47;;;;;;;8.25;7.10;;;;;;;15.02;83.96;100639.28;1706187;83;21581;-88
2021/09/17 03:04:19;;;;;;;9.25;6.97;;;;;;;14.98;84.03;100636.18;1706434;83;21763;-89
2021/09/17 03:06:47;;;;;;;8.88;6.40;;;;;;;14.92;84.05;100641.02;1722462;80;21483;-88
2021/09/17 03:09:14;;;;;;;8.15;6.40;;;;;;;14.87;84.17;100640.09;1761262;81;21018;-90
2021/09/17 03:11:40;;;;;;;8.58;6.47;;;;;;;14.82;84.19;100639.62;1695277;82;21477;-88
2021/09/17 03:14:07;;;;;;;9.03;6.22;;;;;;;14.77;84.25;100639.16;1721876;83;21026;-88
2021/09/17 03:16:33;;;;;;;7.58;6.33;;;;;;;14.74;84.46;100633.83;1707918;84;21765;-83
2021/09/17 03:19:00;;;;;;;8.75;6.33;;;;;;;14.75;84.57;100637.36;1707775;84;21059;-84
2021/09/17 03:21:27;;;;;;;9.55;6.45;;;;;;;14.75;84.81;100646.21;1690822;84;21054;-83
2021/09/17 03:23:53;;;;;;;9.53;6.35;;;;;;;14.80;84.96;100642.70;1721224;83;22238;-83
2021/09/17 03:26:20;;;;;;;11.97;6.78;;;;;;;14.83;85.13;100642.70;1690920;83;21018;-85
2021/09/17 03:28:47;;;;;;;8.50;6.97;;;;;;;14.86;85.18;100638.75;1721222;83;21753;-83
2021/09/17 03:31:13;;;;;;;9.48;6.90;;;;;;;14.91;85.34;100640.55;1707879;84;21043;-83
2021/09/17 03:33:40;;;;;;;10.08;7.08;;;;;;;14.94;85.33;100639.25;1708040;84;20996;-83
2021/09/17 03:36:07;;;;;;;10.32;6.80;;;;;;;14.97;85.44;100632.62;1709478;83;21015;-83
2021/09/17 03:38:33;;;;;;;9.48;7.08;;;;;;;15.02;85.51;100635.76;1707985;84;21122;-83
2021/09/17 03:41:00;;;;;;;12.68;7.62;;;;;;;15.06;85.50;100634.44;1707743;84;21749;-83
2021/09/17 03:43:27;;;;;;;11.33;7.42;;;;;;;15.09;85.52;100625.19;1712255;83;21086;-83
2021/09/17 03:45:53;;;;;;;11.18;7.60;;;;;;;15.14;85.56;100630.50;1700610;83;21530;-82
2021/09/17 03:48:20;;;;;;;11.93;7.85;;;;;;;15.18;85.51;100632.27;1760837;81;21710;-82
2021/09/17 03:50:46;;;;;;;15.23;8.30;;;;;;;15.21;85.45;100632.30;1760879;80;21018;-83
2021/09/17 03:53:13;;;;;;;11.50;7.25;;;;;;;15.23;85.37;100630.98;1761148;80;21663;-85
2021/09/17 03:55:40;;;;;;;8.43;7.53;;;;;;;15.24;85.30;100624.37;1761134;81;21049;-86
2021/09/17 03:58:06;;;;;;;13.32;8.08;;;;;;;15.27;85.20;100624.36;1760774;81;21053;-85
2021/09/17 04:00:33;;;;;;;11.55;8.08;;;;;;;15.27;85.17;100625.69;1761219;81;21541;-85
2021/09/17 04:03:00;;;;;;;10.10;7.40;;;;;;;15.28;85.15;100627.92;1760845;80;21053;-87
2021/09/17 04:05:26;;;;;;;11.20;7.17;;;;;;;15.29;85.22;100626.58;1761422;81;21907;-87
2021/09/17 04:07:53;;;;;;;12.07;8.08;;;;;;;15.31;85.22;100620.83;1761174;80;20987;-89
2021/09/17 04:10:20;;;;;;;11.25;7.10;;;;;;;15.34;85.23;100616.00;1761053;81;21566;-90
2021/09/17 04:12:47;;;;;;;8.30;7.28;;;;;;;15.38;85.23;100616.90;1761420;80;21195;-88
2021/09/17 04:15:14;;;;;;;9.50;7.47;;;;;;;15.39;85.17;100617.33;1761299;81;21056;-88
2021/09/17 04:17:41;;;;;;;12.45;7.70;;;;;;;15.41;85.10;100612.91;1761372;81;21820;-88
2021/09/17 04:20:08;;;;;;;9.15;7.55;;;;;;;15.40;85.02;100612.48;1733374;81;21061;-87
2021/09/17 04:22:35;;;;;;;11.10;7.97;;;;;;;15.40;85.06;100611.16;1721532;83;21057;-87
2021/09/17 04:25:02;;;;;;;12.03;8.43;;;;;;;15.40;85.02;100607.17;1691394;84;21179;-86
2021/09/17 04:27:29;;;;;;;11.97;7.78;;;;;;;15.40;85.04;100614.69;1721123;83;21089;-85
2021/09/17 04:29:56;;;;;;;10.28;7.75;;;;;;;15.41;85.10;100613.81;1708574;84;22559;-84
2021/09/17 04:32:22;;;;;;;8.65;7.58;;;;;;;15.43;85.14;100617.77;1708535;84;21098;-91
2021/09/17 04:34:49;;;;;;;10.43;7.05;;;;;;;15.45;85.15;100611.61;1712589;83;21077;-88
2021/09/17 04:37:17;;;;;;;12.50;7.03;;;;;;;15.48;85.13;100608.07;1699700;83;21156;-85
2021/09/17 04:39:44;;;;;;;13.58;8.13;;;;;;;15.52;85.17;100609.84;1730626;82;21105;-86
2021/09/17 04:42:14;;;;;;;7.87;7.12;;;;;;;15.57;85.16;100601.46;1730401;82;21738;-89
2021/09/17 04:44:42;;;;;;;14.65;8.08;;;;;;;15.60;85.02;100593.94;1729807;81;21074;-90
2021/09/17 04:47:09;;;;;;;8.53;7.25;;;;;;;15.66;85.08;100601.94;1705649;82;21094;-87
2021/09/17 04:49:36;;;;;;;10.20;7.00;;;;;;;15.95;86.04;100595.34;1730146;82;21186;-84
2021/09/17 04:52:02;;;;;;;9.48;7.28;;;;;;;16.65;87.04;100605.49;1729973;81;21093;-91
2021/09/17 04:54:29;;;;;;;12.82;7.85;;;;;;;17.35;86.58;100601.70;1705542;82;22553;-92
2021/09/17 04:56:56;;;;;;;8.68;7.35;;;;;;;17.80;84.95;100590.78;1730460;81;21071;-94
2021/09/17 04:59:22;;;;;;;10.03;6.85;;;;;;;17.92;83.28;100588.50;1730937;82;21062;-95
2021/09/17 05:01:49;;;;;;;12.58;7.15;;;;;;;17.86;82.54;100596.97;1731090;82;20992;-88
2021/09/17 05:04:16;;;;;;;11.10;6.90;;;;;;;17.73;82.17;100600.58;1731052;82;21094;-93
2021/09/17 05:06:42;;;;;;;30.60;8.70;;;;;;;17.63;81.94;100598.43;1727905;82;22518;-91
2021/09/17 05:09:09;;;;;;;57.15;12.73;;;;;;;17.53;81.79;100603.81;1715830;83;21098;-92
2021/09/17 05:11:36;;;;;;;52.10;12.80;;;;;;;17.42;81.87;100602.56;1715468;83;21671;-89
2021/09/17 05:14:03;;;;;;;83.52;14.13;;;;;;;17.37;81.79;100605.69;1715582;83;21099;-89
2021/09/17 05:16:32;;;;;;;47.10;11.57;;;;;;;17.32;81.81;100612.34;1698873;83;21555;-91
2021/09/17 05:18:59;;;;;;;36.38;9.90;;;;;;;17.28;81.78;100611.48;1672638;85;21813;-90
2021/09/17 05:21:26;;;;;;;18.37;8.35;;;;;;;17.24;81.69;100615.05;1678231;84;21355;-91
2021/09/17 05:23:53;;;;;;;14.10;7.58;;;;;;;17.23;81.79;100612.39;1666129;83;21056;-91
2021/09/17 05:26:19;;;;;;;11.50;6.83;;;;;;;17.21;81.83;100605.77;1691681;84;21590;-83
2021/09/17 05:28:47;;;;;;;7.25;6.33;;;;;;;17.23;81.81;100612.39;1691776;83;21047;-83
2021/09/17 05:31:13;;;;;;;7.55;5.78;;;;;;;17.25;81.85;100619.48;1670644;84;21734;-84
2021/09/17 05:33:40;;;;;;;8.35;5.45;;;;;;;17.28;81.70;100611.93;1690824;83;21580;-84
2021/09/17 05:36:06;;;;;;;5.40;4.83;;;;;;;17.32;81.70;100615.46;1693221;83;21001;-84
2021/09/17 05:38:33;;;;;;;7.47;5.17;;;;;;;17.36;81.61;100619.87;1690970;83;21154;-84
2021/09/17 05:41:00;;;;;;;6.83;4.78;;;;;;;17.43;81.57;100618.95;1690984;83;21079;-84
2021/09/17 05:43:26;;;;;;;7.08;4.58;;;;;;;17.47;81.39;100613.63;1690560;84;21761;-84
2021/09/17 05:45:53;;;;;;;6.15;4.65;;;;;;;17.54;81.35;100613.13;1690652;84;21020;-84
2021/09/17 05:48:20;;;;;;;6.80;5.47;;;;;;;17.61;81.35;100616.19;1690714;84;21079;-84
2021/09/17 05:50:46;;;;;;;6.15;4.67;;;;;;;17.67;81.16;100616.59;1690728;84;21163;-84
2021/09/17 05:53:15;;;;;;;5.45;4.95;;;;;;;17.73;81.13;100613.02;1690724;84;21070;-84
2021/09/17 05:55:41;;;;;;;6.55;4.95;;;;;;;17.79;80.97;100614.30;1691045;83;21916;-84
2021/09/17 05:58:08;;;;;;;7.40;4.85;;;;;;;17.82;80.79;100609.84;1690837;83;21070;-84
2021/09/17 06:00:35;;;;;;;5.55;4.62;;;;;;;17.87;80.73;100610.73;1690731;84;21112;-84
2021/09/17 06:03:03;;;;;;;8.90;5.22;;;;;;;17.93;80.63;100612.47;1690718;84;21083;-84
2021/09/17 06:05:29;;;;;;;15.98;5.92;;;;;;;18.04;80.65;100607.06;1690635;84;21039;-84
2021/09/17 06:07:56;;;;;;;11.78;6.58;;;;;;;18.13;80.46;100611.41;1708840;82;21397;-84
2021/09/17 06:10:23;;;;;;;23.38;6.85;;;;;;;18.21;80.29;100611.79;1727733;82;21663;-85
2021/09/17 06:12:49;;;;;;;25.97;8.00;;;;;;;18.30;80.16;100608.59;1728096;82;21032;-90
2021/09/17 06:15:17;;;;;;;17.90;6.30;;;;;;;18.39;80.09;100607.19;1715372;83;21627;-90
2021/09/17 06:17:45;;;;;;;8.70;5.17;;;;;;;18.51;80.01;100611.08;1715427;83;21042;-90
2021/09/17 06:20:12;;;;;;;6.08;4.92;;;;;;;18.63;79.77;100605.60;1728382;82;21753;-90
2021/09/17 06:22:45;;;;;;;9.90;5.87;;;;;;;18.77;79.58;100606.81;1728564;83;21026;-90
2021/09/17 06:25:11;;;;;;;8.18;4.87;;;;;;;18.92;79.33;100601.78;1728622;82;21078;-90
2021/09/17 06:27:38;;;;;;;7.87;4.85;;;;;;;19.06;79.12;100597.60;1728177;82;21034;-90
2021/09/17 06:30:06;;;;;;;8.30;4.87;;;;;;;19.21;79.01;100597.86;1728234;82;21022;-90
2021/09/17 06:32:32;;;;;;;10.63;5.30;;;;;;;19.33;78.58;100593.71;1728322;82;21703;-90
2021/09/17 06:34:59;;;;;;;5.78;4.45;;;;;;;19.45;78.37;100591.78;1728171;82;21026;-89
2021/09/17 06:37:26;;;;;;;8.50;4.65;;;;;;;19.55;78.15;100592.93;1728679;82;21038;-90
2021/09/17 06:39:53;;;;;;;9.60;4.70;;;;;;;19.64;77.67;100593.72;1728909;82;21072;-90
2021/09/17 06:42:19;;;;;;;5.62;4.20;;;;;;;19.73;77.56;100591.82;1728393;82;21495;-84
2021/09/17 06:44:46;;;;;;;13.22;4.92;;;;;;;19.87;77.57;100597.41;1728194;82;21743;-85
2021/09/17 06:47:13;;;;;;;18.65;5.83;;;;;;;20.01;77.22;100595.41;1728042;82;21178;-85
2021/09/17 06:49:39;;;;;;;14.30;6.20;;;;;;;20.12;76.85;100596.10;1727994;82;21104;-85
2021/09/17 06:52:06;;;;;;;6.03;4.40;;;;;;;20.25;76.69;100596.75;1727856;82;21006;-85
2021/09/17 06:54:33;;;;;;;8.45;4.22;;;;;;;20.43;76.57;100595.55;1727786;82;21092;-85
2021/09/17 06:57:00;;;;;;;5.60;4.42;;;;;;;20.57;76.15;100594.86;1727884;83;21760;-90
2021/09/17 06:59:26;;;;;;;5.08;3.90;;;;;;;20.70;75.90;100590.19;1728723;82;21071;-84
2021/09/17 07:01:53;;;;;;;6.30;3.92;;;;;;;20.83;75.67;100581.91;1728554;83;21037;-85
2021/09/17 07:04:20;;;;;;;5.92;3.80;;;;;;;20.90;75.04;100588.91;1728401;83;21493;-85
2021/09/17 07:06:46;;;;;;;4.65;3.67;;;;;;;20.92;74.78;100590.63;1728535;83;21088;-85
2021/09/17 07:09:13;;;;;;;5.28;3.60;;;;;;;20.95;74.57;100595.92;1708482;81;22344;-85
2021/09/17 07:11:40;;;;;;;5.72;3.45;;;;;;;20.96;74.31;100589.64;1707759;83;21643;-90
2021/09/17 07:14:07;;;;;;;10.80;3.80;;;;;;;20.94;73.74;100591.94;1707973;84;21043;-85
2021/09/17 07:16:33;;;;;;;8.08;4.10;;;;;;;20.89;73.58;100593.81;1707889;84;21235;-90
2021/09/17 07:19:00;;;;;;;19.98;6.37;;;;;;;20.85;73.48;100600.15;1707971;84;21738;-85
2021/09/17 07:21:27;;;;;;;28.80;5.75;;;;;;;20.94;73.31;100593.27;1708059;83;21753;-90
2021/09/17 07:23:54;;;;;;;30.37;6.40;;;;;;;20.94;73.31;100593.27;1708129;84;21047;-85
2021/09/17 07:26:20;;;;;;;10.20;4.15;;;;;;;21.06;73.13;100589.02;1707866;84;21089;-85
2021/09/17 07:28:47;;;;;;;5.08;3.30;;;;;;;21.28;72.83;100593.91;1707932;84;21161;-85
2021/09/17 07:31:14;;;;;;;3.92;3.00;;;;;;;21.28;72.83;100593.91;1708027;83;21018;-85
2021/09/17 07:33:40;;;;;;;5.60;4.03;;;;;;;21.30;72.66;100571.99;1708031;83;21202;-90
2021/09/17 07:36:07;;;;;;;7.37;3.85;;;;;;;21.54;72.35;100598.25;1708225;83;21023;-90
2021/09/17 07:38:34;;;;;;;6.15;3.45;;;;;;;21.59;71.96;100595.48;1708067;83;21066;-90
2021/09/17 07:41:01;;;;;;;3.95;3.30;;;;;;;21.59;71.72;100595.95;1708051;84;21142;-85
2021/09/17 07:43:27;;;;;;;3.80;3.20;;;;;;;21.54;71.11;100599.59;1707883;83;21616;-85
2021/09/17 07:45:54;;;;;;;5.70;3.47;;;;;;;21.34;71.10;100584.39;1708148;84;21701;-90
2021/09/17 07:48:21;;;;;;;3.72;3.30;;;;;;;21.41;70.96;100602.55;1707887;83;21675;-91
2021/09/17 07:50:47;;;;;;;4.17;3.30;;;;;;;21.33;70.96;100610.76;1708135;83;21101;-91
2021/09/17 07:53:14;;;;;;;5.33;3.47;;;;;;;21.36;71.00;100614.72;1707796;83;21814;-90
2021/09/17 07:55:41;;;;;;;3.80;3.37;;;;;;;21.42;70.94;100620.40;1708068;83;21046;-85
2021/09/17 07:58:08;;;;;;;9.20;3.52;;;;;;;21.50;71.00;100613.97;1707960;83;22563;-85
2021/09/17 08:00:34;;;;;;;13.72;4.42;;;;;;;21.56;70.87;100608.93;1707731;84;21011;-85
2021/09/17 08:03:04;;;;;;;4.75;3.35;;;;;;;21.60;70.82;100613.30;1707994;83;21560;-91
2021/09/17 08:05:30;;;;;;;3.85;3.08;;;;;;;21.58;70.26;100618.28;1707896;84;21113;-85
2021/09/17 08:07:56;;;;;;;4.67;3.20;;;;;;;21.49;70.20;100616.67;1713632;82;21061;-91
2021/09/17 08:10:23;;;;;;;4.75;3.40;;;;;;;21.39;70.07;100615.09;1728341;82;21842;-91
2021/09/17 08:12:50;;;;;;;5.25;3.55;;;;;;;21.16;70.08;100597.73;1728549;83;21073;-90
2021/09/17 08:15:17;;;;;;;3.83;3.35;;;;;;;21.31;70.36;100609.91;1728766;83;21030;-90
2021/09/17 08:17:43;;;;;;;5.35;3.47;;;;;;;21.31;70.36;100609.91;1728542;82;21018;-91
2021/09/17 08:20:11;;;;;;;6.67;3.33;;;;;;;21.42;70.60;100607.88;1728623;82;21017;-91
2021/09/17 08:22:38;;;;;;;3.47;3.17;;;;;;;21.51;70.49;100614.41;1728627;82;22553;-91
2021/09/17 08:25:06;;;;;;;3.67;2.80;;;;;;;21.44;70.05;100598.48;1705688;83;21081;-91
2021/09/17 08:27:33;;;;;;;4.45;3.10;;;;;;;21.38;70.04;100590.56;1728781;83;21026;-91
2021/09/17 08:29:59;;;;;;;2.92;2.70;;;;;;;21.38;70.04;100590.56;1728788;82;21158;-90
2021/09/17 08:32:26;;;;;;;4.67;3.05;;;;;;;21.57;70.20;100615.16;1728791;82;21049;-91
2021/09/17 08:34:53;;;;;;;4.53;2.70;;;;;;;21.65;70.04;100609.19;1728759;82;21730;-91
2021/09/17 08:37:19;;;;;;;4.00;2.95;;;;;;;21.74;69.84;100614.34;1728454;82;21018;-90
2021/09/17 08:39:46;;;;;;;3.55;3.20;;;;;;;21.84;69.78;100604.28;1728555;82;21129;-91
2021/09/17 08:42:13;;;;;;;4.72;3.35;;;;;;;21.95;69.60;100614.28;1728621;83;21065;-85
2021/09/17 08:47:09;;;;;;;3.95;3.45;;;;;;;22.06;69.15;100600.16;1887463;76;22408;-81
2021/09/17 08:49:37;;;;;;;3.25;2.95;;;;;;;22.08;68.93;100605.02;1858307;77;21089;-81
2021/09/17 08:52:04;;;;;;;2.75;2.45;;;;;;;22.17;68.94;100609.71;1763414;78;21725;-81
2021/09/17 08:54:30;;;;;;;3.60;2.50;;;;;;;22.24;68.45;100607.30;1820898;78;20967;-81
2021/09/17 08:56:57;;;;;;;4.40;3.00;;;;;;;22.20;67.93;100611.86;1786920;80;21065;-81
2021/09/17 08:59:24;;;;;;;3.30;2.77;;;;;;;22.10;67.99;100607.66;1810603;78;21049;-81
2021/09/17 09:01:50;;;;;;;3.95;2.83;;;;;;;22.12;68.10;100607.16;1781834;80;21062;-81
2021/09/17 09:04:18;;;;;;;4.03;2.80;;;;;;;22.18;68.13;100601.63;1781735;80;21696;-81
2021/09/17 09:06:48;;;;;;;2.85;2.65;;;;;;;22.21;67.64;100614.11;1703818;80;21054;-82
2021/09/17 09:09:17;;;;;;;4.22;2.95;;;;;;;22.16;67.63;100606.16;1781727;80;21170;-81
2021/09/17 09:11:51;;;;;;;3.40;2.65;;;;;;;22.21;67.68;100604.72;1781747;80;21006;-81
2021/09/17 09:14:17;;;;;;;2.60;2.40;;;;;;;22.35;67.57;100605.73;1781184;79;21073;-81
2021/09/17 09:16:47;;;;;;;3.20;2.87;;;;;;;22.51;67.52;100608.43;1781579;80;21784;-81
2021/09/17 09:19:28;;;;;;;5.85;2.62;;;;;;;22.70;67.12;100599.42;1781797;80;21053;-81
2021/09/17 09:22:09;;;;;;;4.12;2.55;;;;;;;22.87;66.98;100601.16;1781931;80;21065;-82
2021/09/17 09:24:40;;;;;;;5.05;2.45;;;;;;;23.01;66.57;100595.42;1781798;79;21053;-81
2021/09/17 09:27:14;;;;;;;2.90;2.30;;;;;;;23.04;66.43;100600.71;1781660;80;20991;-82
2021/09/17 09:29:42;;;;;;;;;;;;;;;23.04;66.41;100599.84;1784691;80;22398;-81
2021/09/17 09:32:12;;;;;;;8.65;2.55;;;;;;;23.14;66.13;100601.31;1781758;80;20708;-81
2021/09/17 09:35:03;;;;;;;2.27;2.00;;;;;;;23.17;66.13;100604.39;1750919;80;21107;-81
2021/09/17 09:37:32;;;;;;;2.30;2.02;;;;;;;23.23;65.86;100600.17;1781193;80;21556;-81
2021/09/17 09:40:02;;;;;;;2.30;2.10;;;;;;;23.24;65.35;100600.13;1781976;79;21117;-82
2021/09/17 09:42:34;;;;;;;3.60;2.00;;;;;;;23.24;65.03;100599.27;1781920;80;21717;-82
2021/09/17 09:45:22;;;;;;;1.92;1.77;;;;;;;23.14;64.71;100597.76;1781855;80;21042;-82
2021/09/17 09:47:56;;;;;;;2.12;1.75;;;;;;;23.01;64.62;100595.86;1781684;80;21326;-81
2021/09/17 09:50:29;;;;;;;3.10;1.90;;;;;;;22.83;64.57;100598.16;1782010;80;21583;-81
2021/09/17 09:53:00;;;;;;;2.87;2.03;;;;;;;22.63;64.55;100596.02;1782049;80;21022;-82
2021/09/17 09:55:28;;;;;;;2.50;1.92;;;;;;;22.46;64.54;100606.33;1782065;80;21366;-82
2021/09/17 09:57:55;;;;;;;2.27;1.92;;;;;;;22.34;64.74;100595.47;1781450;80;20992;-82
2021/09/17 10:00:27;;;;;;;3.15;2.12;;;;;;;22.28;64.81;100600.97;1781610;80;21578;-82
2021/09/17 10:02:55;;;;;;;2.85;2.02;;;;;;;22.26;64.87;100600.13;1781403;79;21064;-82
2021/09/17 10:05:25;;;;;;;2.12;1.87;;;;;;;22.29;65.06;100596.04;1727279;80;21094;-82
2021/09/17 10:07:50;;;;;;;2.40;2.20;;;;;;;22.39;65.09;100599.36;1781084;80;21856;-82
2021/09/17 10:10:17;;;;;;;3.33;2.35;;;;;;;22.50;64.95;100594.59;1781547;80;21006;-82
2021/09/17 10:12:46;;;;;;;3.92;2.30;;;;;;;22.61;64.91;100597.86;1781583;80;21039;-82
2021/09/17 10:15:13;;;;;;;2.30;2.10;;;;;;;22.73;64.69;100593.98;1781408;79;21101;-82
2021/09/17 10:17:40;;;;;;;2.40;1.82;;;;;;;22.89;64.67;100594.41;1781491;80;21070;-82
2021/09/17 10:20:08;;;;;;;2.35;2.02;;;;;;;23.03;64.50;100589.98;1781489;79;21743;-82
2021/09/17 10:22:41;;;;;;;2.10;1.90;;;;;;;23.17;64.25;100593.66;1781348;80;21037;-82
2021/09/17 10:25:16;;;;;;;4.27;2.20;;;;;;;23.26;63.75;100604.13;1780768;79;21536;-82
2021/09/17 10:28:03;;;;;;;4.95;1.95;;;;;;;23.25;63.53;100596.98;1754786;80;21552;-82
2021/09/17 10:30:38;;;;;;;1.95;1.75;;;;;;;23.30;63.39;100595.05;1714993;83;21107;-82
2021/09/17 10:33:03;;;;;;;2.37;2.05;;;;;;;23.36;63.17;100597.53;1714982;83;22519;-82
2021/09/17 10:35:43;;;;;;;2.85;1.60;;;;;;;23.37;63.03;100595.28;1715041;83;21132;-82
2021/09/17 10:38:28;;;;;;;2.20;1.85;;;;;;;23.27;62.50;100597.37;1715083;83;21120;-82
2021/09/17 10:41:06;;;;;;;2.67;1.87;;;;;;;23.07;62.57;100592.58;1692345;83;21120;-82
2021/09/17 10:43:44;;;;;;;2.20;2.00;;;;;;;22.86;62.42;100599.42;1715132;83;21110;-81
2021/09/17 10:46:21;;;;;;;2.50;1.72;;;;;;;22.60;62.65;100600.14;1715182;83;23798;-82
2021/09/17 10:48:53;;;;;;;2.87;2.67;;;;;;;22.35;62.83;100597.21;1715379;83;21101;-82
2021/09/17 10:51:41;;;;;;;3.83;2.40;;;;;;;22.09;63.02;100595.16;1715438;83;21096;-82
2021/09/17 10:54:14;;;;;;;2.25;2.00;;;;;;;21.86;63.50;100601.09;1715382;83;21096;-82
2021/09/17 10:57:05;;;;;;;2.55;1.60;;;;;;;21.63;64.13;100600.31;1715540;83;21164;-82
2021/09/17 10:59:41;;;;;;;4.33;1.47;;;;;;;21.47;64.34;100598.42;1714929;82;21806;-83
2021/09/17 11:02:08;;;;;;;2.00;1.80;;;;;;;21.02;64.63;100578.40;1716761;82;21629;-80
2021/09/17 11:04:38;;;;;;;2.47;2.20;;;;;;;21.02;64.63;100578.40;1715556;83;21151;-81
2021/09/17 11:07:27;;;;;;;5.12;2.60;;;;;;;21.05;65.12;100598.41;1732621;80;21643;-81
2021/09/17 11:09:57;;;;;;;4.70;2.70;;;;;;;21.05;65.12;100598.41;1787236;80;21018;-82
2021/09/17 11:12:29;;;;;;;5.12;3.08;;;;;;;21.09;65.49;100597.44;1786405;80;21878;-81
2021/09/17 11:15:17;;;;;;;2.72;1.95;;;;;;;21.13;65.27;100605.81;1759222;80;21026;-81
2021/09/17 11:17:52;;;;;;;1.70;1.55;;;;;;;21.14;65.47;100605.79;1787088;80;21074;-82
2021/09/17 11:20:28;;;;;;;2.80;1.90;;;;;;;21.11;65.32;100603.17;1786995;80;21559;-82
2021/09/17 11:23:02;;;;;;;3.60;1.75;;;;;;;21.10;65.22;100605.90;1787297;80;21049;-81
2021/09/17 11:25:42;;;;;;;2.42;2.22;;;;;;;21.10;65.49;100602.76;1787055;80;22322;-82
2021/09/17 11:28:30;;;;;;;2.27;2.00;;;;;;;21.22;65.58;100602.08;1783335;80;21057;-81